Time;durP1;ratioP1;P1;durP2;ratioP2;P2;SDS_P1;SDS_P2;PMS_P1;PMS_P2;Temp;Humidity;BMP_temperature;BMP_pressure;BME280_temperature;BME280_humidity;BME280_pressure;Samples;Min_cycle;Max_cycle;Signal;HPM_P1;HPM_P2
2021/11/11 00:00:23;;;;;;;15.10;9.37;;;1.30;99.90;0.40;101360.00;;;;4935994;28;87948;-66
2021/11/11 00:02:48;;;;;;;16.13;9.17;;;0.70;99.90;0.30;101340.00;;;;4936335;28;88607;-64
2021/11/11 00:05:15;;;;;;;13.33;9.17;;;0.70;99.90;0.30;101357.00;;;;4936262;28;87958;-64
2021/11/11 00:07:40;;;;;;;16.70;9.40;;;0.60;99.90;0.30;101361.00;;;;4935158;28;99062;-64
2021/11/11 00:10:15;;;;;;;14.63;8.77;;;0.60;99.90;0.20;101371.00;;;;4935038;28;93510;-64
2021/11/11 00:12:41;;;;;;;15.07;8.63;;;0.60;99.90;0.20;101367.00;;;;4935854;28;88787;-64
2021/11/11 00:15:11;;;;;;;10.70;7.50;;;0.50;99.90;0.10;101361.00;;;;4936112;28;98402;-64
2021/11/11 00:17:38;;;;;;;14.87;8.80;;;0.50;99.90;0.10;101355.00;;;;4935585;28;99972;-64
2021/11/11 00:20:07;;;;;;;14.00;8.37;;;0.50;99.90;0.10;101364.00;;;;4935514;28;93224;-66
2021/11/11 00:22:33;;;;;;;9.97;7.00;;;0.50;99.90;0.10;101372.00;;;;4935166;28;94527;-64
2021/11/11 00:24:59;;;;;;;13.83;10.03;;;0.40;99.90;0.10;101363.00;;;;4935930;28;88881;-64
2021/11/11 00:27:25;;;;;;;14.40;9.53;;;0.40;99.90;0.10;101356.00;;;;4935652;28;86956;-64
2021/11/11 00:29:51;;;;;;;9.83;6.57;;;0.40;99.90;0.10;101356.00;;;;4935404;28;108888;-64
2021/11/11 00:32:16;;;;;;;12.60;8.20;;;0.40;99.90;0.10;101352.00;;;;4950381;28;102324;-65
2021/11/11 00:34:43;;;;;;;16.40;9.07;;;0.40;99.90;0.10;101363.00;;;;4935183;28;90524;-64
2021/11/11 00:37:10;;;;;;;13.67;8.73;;;0.40;99.90;0.10;101363.00;;;;4936266;28;87844;-64
2021/11/11 00:39:35;;;;;;;15.50;8.90;;;0.50;99.90;0.00;101356.00;;;;4934283;28;87715;-64
2021/11/11 00:42:01;;;;;;;11.13;8.63;;;0.40;99.90;0.00;101360.00;;;;4935454;28;102048;-65
2021/11/11 00:44:27;;;;;;;11.30;8.87;;;0.30;99.90;0.00;101351.00;;;;4935920;28;94185;-64
2021/11/11 00:46:53;;;;;;;14.93;8.43;;;0.40;99.90;-0.10;101357.00;;;;4934974;28;110518;-64
2021/11/11 00:49:19;;;;;;;10.47;7.13;;;0.30;99.90;-0.10;101358.00;;;;4936181;28;88095;-64
2021/11/11 00:51:44;;;;;;;12.43;9.20;;;0.30;99.90;-0.10;101332.00;;;;4939983;28;97524;-66
2021/11/11 00:54:11;;;;;;;13.53;9.33;;;0.20;99.90;-0.20;101335.00;;;;4935132;28;102814;-66
2021/11/11 00:56:37;;;;;;;9.63;7.97;;;0.30;99.90;-0.20;101339.00;;;;4948787;28;109802;-64
2021/11/11 00:59:03;;;;;;;16.27;10.57;;;0.90;99.90;-0.20;101343.00;;;;4934372;28;109278;-64
2021/11/11 01:01:29;;;;;;;14.80;9.13;;;0.20;99.90;-0.20;101334.00;;;;4935278;28;88631;-64
2021/11/11 01:04:02;;;;;;;11.23;7.53;;;0.10;99.90;-0.20;101345.00;;;;4935527;28;88765;-64
2021/11/11 01:06:29;;;;;;;8.80;6.80;;;0.10;99.90;-0.20;101341.00;;;;4935614;28;87757;-66
2021/11/11 01:08:56;;;;;;;10.60;7.33;;;0.10;99.90;-0.20;101335.00;;;;4950503;28;87820;-65
2021/11/11 01:11:23;;;;;;;10.13;8.07;;;0.10;99.90;-0.20;101334.00;;;;4935537;28;88999;-65
2021/11/11 01:13:50;;;;;;;13.33;8.93;;;0.00;99.90;-0.20;101340.00;;;;4934713;28;102102;-64
2021/11/11 01:16:16;;;;;;;11.30;8.33;;;0.30;99.90;-0.20;101342.00;;;;4935236;28;95717;-64
2021/11/11 01:18:42;;;;;;;7.50;6.60;;;0.20;99.90;-0.20;101342.00;;;;4934641;28;92821;-64
2021/11/11 01:21:09;;;;;;;10.80;7.70;;;0.10;99.90;-0.20;101343.00;;;;4934501;28;117248;-65
2021/11/11 01:23:35;;;;;;;10.83;7.03;;;0.20;99.90;-0.20;101334.00;;;;4934097;28;96721;-64
2021/11/11 01:26:03;;;;;;;12.90;8.80;;;0.20;99.90;-0.20;101331.00;;;;4935612;28;87822;-64
2021/11/11 01:28:30;;;;;;;9.27;7.90;;;0.20;99.90;-0.20;101348.00;;;;4937439;28;88011;-64
2021/11/11 01:30:56;;;;;;;12.27;7.07;;;0.20;99.90;-0.20;101338.00;;;;4938357;28;89089;-64
2021/11/11 01:33:22;;;;;;;14.73;8.33;;;0.10;99.90;-0.30;101337.00;;;;4937928;28;103335;-65
2021/11/11 01:35:48;;;;;;;11.70;8.20;;;0.10;99.90;-0.30;101339.00;;;;4938650;28;87774;-65
2021/11/11 01:38:14;;;;;;;13.00;7.30;;;0.10;99.90;-0.30;101342.00;;;;4937730;28;104640;-65
2021/11/11 01:40:40;;;;;;;10.50;7.77;;;0.10;99.90;-0.30;101324.00;;;;4939429;28;87204;-66
2021/11/11 01:43:07;;;;;;;13.13;8.57;;;0.60;99.90;-0.30;101332.00;;;;4936643;28;117598;-63
2021/11/11 01:45:37;;;;;;;14.73;8.40;;;0.00;99.90;-0.30;101335.00;;;;4938705;28;87820;-65
2021/11/11 01:48:05;;;;;;;15.13;9.77;;;0.10;99.90;-0.30;101334.00;;;;4938127;28;88713;-64
2021/11/11 01:50:32;;;;;;;13.80;7.90;;;0.00;99.90;-0.40;101332.00;;;;4937705;28;88685;-66
2021/11/11 01:52:59;;;;;;;12.67;8.27;;;-0.10;99.90;-0.40;101345.00;;;;4951845;28;96264;-64
2021/11/11 01:55:28;;;;;;;10.90;7.80;;;0.00;99.90;-0.50;101324.00;;;;4937451;28;94973;-64
2021/11/11 01:57:55;;;;;;;11.07;7.20;;;0.00;99.90;-0.50;101323.00;;;;4937578;28;87920;-64
2021/11/11 02:00:28;;;;;;;13.13;8.90;;;-0.10;99.90;-0.50;101317.00;;;;4938025;28;89467;-65
2021/11/11 02:03:00;;;;;;;11.43;7.60;;;-0.20;99.90;-0.50;101316.00;;;;4938062;28;87808;-65
2021/11/11 02:05:27;;;;;;;12.03;8.80;;;-0.20;99.90;-0.50;101335.00;;;;4938544;28;95985;-64
2021/11/11 02:07:54;;;;;;;14.30;9.40;;;-0.20;99.90;-0.60;101322.00;;;;4937248;28;88159;-64
2021/11/11 02:10:21;;;;;;;13.60;9.03;;;-0.30;99.90;-0.60;101319.00;;;;4937565;28;102419;-66
2021/11/11 02:12:48;;;;;;;11.50;8.90;;;-0.20;99.90;-0.60;101322.00;;;;4937354;28;88909;-64
2021/11/11 02:15:16;;;;;;;10.40;7.90;;;-0.20;99.90;-0.60;101308.00;;;;4939147;28;87896;-64
2021/11/11 02:17:43;;;;;;;10.70;8.00;;;-0.30;99.90;-0.60;101304.00;;;;4936917;28;98080;-64
2021/11/11 02:20:20;;;;;;;10.70;8.20;;;-0.20;99.90;-0.60;101309.00;;;;4937333;28;95895;-64
2021/11/11 02:22:46;;;;;;;11.90;8.83;;;-0.30;99.90;-0.60;101300.00;;;;4937357;28;87842;-64
2021/11/11 02:25:15;;;;;;;13.33;9.77;;;-0.20;99.90;-0.60;101317.00;;;;4937018;28;102820;-64
2021/11/11 02:27:43;;;;;;;19.87;10.07;;;-0.20;99.90;-0.60;101305.00;;;;4937530;28;87625;-64
2021/11/11 02:30:13;;;;;;;16.10;10.03;;;-0.30;99.90;-0.70;101313.00;;;;4937365;28;88132;-64
2021/11/11 02:32:40;;;;;;;13.17;9.27;;;-0.30;99.90;-0.60;101324.00;;;;4936750;28;88151;-64
2021/11/11 02:35:09;;;;;;;12.93;8.67;;;-0.30;99.90;-0.60;101315.00;;;;4927416;28;89144;-64
2021/11/11 02:37:36;;;;;;;12.07;9.37;;;-0.30;99.90;-0.70;101312.00;;;;4925952;28;89236;-64
2021/11/11 02:40:09;;;;;;;14.43;9.10;;;-0.30;99.90;-0.60;101305.00;;;;4936118;28;88859;-63
2021/11/11 02:42:36;;;;;;;16.03;10.27;;;-0.30;99.90;-0.70;101290.00;;;;4935675;28;106988;-65
2021/11/11 02:45:06;;;;;;;10.73;9.23;;;-0.30;99.90;-0.70;101285.00;;;;4936851;28;87706;-64
2021/11/11 02:47:33;;;;;;;18.50;10.40;;;-0.30;99.90;-0.70;101300.00;;;;4936853;28;87996;-63
2021/11/11 02:49:59;;;;;;;14.70;8.27;;;-0.30;99.90;-0.70;101296.00;;;;4936577;28;88156;-64
2021/11/11 02:52:25;;;;;;;11.93;9.57;;;-0.30;99.90;-0.70;101294.00;;;;4935410;28;96839;-63
2021/11/11 02:54:52;;;;;;;14.70;9.80;;;-0.40;99.90;-0.60;101301.00;;;;4924251;28;90407;-63
2021/11/11 02:57:27;;;;;;;14.17;9.53;;;-0.30;99.90;-0.60;101293.00;;;;4936580;28;87752;-64
2021/11/11 02:59:56;;;;;;;14.07;8.33;;;-0.30;99.90;-0.60;101298.00;;;;4935051;28;88049;-63
2021/11/11 03:02:32;;;;;;;17.30;9.63;;;-0.30;99.90;-0.60;101305.00;;;;4936282;28;89146;-64
2021/11/11 03:05:00;;;;;;;11.43;8.33;;;-0.30;99.90;-0.60;101304.00;;;;4927722;28;88037;-65
2021/11/11 03:07:26;;;;;;;15.50;9.00;;;-0.30;99.90;-0.60;101301.00;;;;4936774;28;91242;-66
2021/11/11 03:09:53;;;;;;;15.47;10.33;;;-0.30;99.90;-0.70;101293.00;;;;4936065;28;98431;-64
2021/11/11 03:12:20;;;;;;;13.40;9.67;;;-0.30;99.90;-0.70;101298.00;;;;4951018;28;91555;-64
2021/11/11 03:14:47;;;;;;;13.57;9.23;;;-0.30;99.90;-0.70;101292.00;;;;4936556;28;101243;-64
2021/11/11 03:17:13;;;;;;;13.63;8.90;;;-0.20;99.90;-0.70;101298.00;;;;4936169;28;99972;-65
2021/11/11 03:19:40;;;;;;;12.67;9.40;;;-0.30;99.90;-0.70;101296.00;;;;4951748;28;96668;-64
2021/11/11 03:22:10;;;;;;;15.20;9.07;;;-0.40;99.90;-0.70;101297.00;;;;4936355;28;88409;-64
2021/11/11 03:24:39;;;;;;;11.23;8.33;;;-0.30;99.90;-0.70;101290.00;;;;4936571;28;87801;-63
2021/11/11 03:27:07;;;;;;;13.60;9.00;;;-0.40;99.90;-0.70;101303.00;;;;4936808;28;88954;-64
2021/11/11 03:29:33;;;;;;;11.80;9.40;;;-0.40;99.90;-0.70;101295.00;;;;4936610;28;88173;-64
2021/11/11 03:31:59;;;;;;;14.70;10.63;;;-0.40;99.90;-0.80;101280.00;;;;4936926;28;88207;-64
2021/11/11 03:34:25;;;;;;;13.83;9.73;;;0.30;99.90;-0.80;101294.00;;;;4936108;28;87816;-63
2021/11/11 03:36:53;;;;;;;15.60;9.50;;;-0.50;99.90;-0.80;101306.00;;;;4937193;28;87990;-63
2021/11/11 03:39:20;;;;;;;15.17;8.20;;;-0.50;99.90;-0.80;101303.00;;;;4936031;28;91124;-66
2021/11/11 03:41:48;;;;;;;13.47;8.80;;;-0.50;99.90;-0.80;101308.00;;;;4936252;28;88764;-64
2021/11/11 03:44:15;;;;;;;10.23;8.20;;;-0.50;99.90;-0.80;101301.00;;;;4937198;28;86982;-64
2021/11/11 03:46:43;;;;;;;13.73;9.70;;;-0.40;99.90;-0.80;101291.00;;;;4936409;28;87752;-64
2021/11/11 03:49:09;;;;;;;12.93;8.93;;;-0.40;99.90;-0.80;101292.00;;;;4936518;28;88025;-64
2021/11/11 03:51:35;;;;;;;16.30;9.80;;;-0.40;99.90;-0.80;101290.00;;;;4935375;28;98110;-64
2021/11/11 03:54:01;;;;;;;18.97;9.87;;;-0.50;99.90;-0.80;101290.00;;;;4937091;28;87803;-64
2021/11/11 03:56:27;;;;;;;14.53;9.37;;;-0.40;99.90;-0.80;101276.00;;;;4934101;28;88433;-64
2021/11/11 03:58:53;;;;;;;18.23;10.97;;;-0.40;99.90;-0.70;101276.00;;;;4916246;28;106713;-64
2021/11/11 04:01:18;;;;;;;17.63;9.60;;;-0.50;99.90;-0.70;101275.00;;;;4915660;28;88595;-65
2021/11/11 04:03:44;;;;;;;19.13;10.07;;;-0.30;99.90;-0.70;101266.00;;;;4926193;28;113731;-65
2021/11/11 04:06:10;;;;;;;13.40;10.33;;;-0.40;99.90;-0.70;101271.00;;;;4935658;28;87842;-64
2021/11/11 04:08:35;;;;;;;14.77;8.97;;;-0.40;99.90;-0.70;101276.00;;;;4935183;28;116705;-64
2021/11/11 04:11:03;;;;;;;16.00;8.63;;;-0.30;99.90;-0.70;101284.00;;;;4935397;28;117664;-65
2021/11/11 04:13:29;;;;;;;14.50;11.07;;;-0.40;99.90;-0.80;101280.00;;;;4950523;28;87928;-64
2021/11/11 04:15:56;;;;;;;16.37;9.97;;;-0.40;99.90;-0.80;101273.00;;;;4934998;28;108531;-64
2021/11/11 04:18:21;;;;;;;14.80;9.57;;;-0.40;99.90;-0.80;101265.00;;;;4934666;28;108603;-64
2021/11/11 04:20:47;;;;;;;15.27;9.37;;;-0.40;99.90;-0.80;101271.00;;;;4935319;28;117401;-65
2021/11/11 04:23:14;;;;;;;10.90;8.93;;;-0.50;99.90;-0.80;101283.00;;;;4936946;28;87914;-64
2021/11/11 04:25:53;;;;;;;16.30;9.70;;;-0.40;99.90;-0.80;101279.00;;;;4936650;28;87883;-65
2021/11/11 04:28:28;;;;;;;15.93;10.57;;;-0.50;99.90;-0.80;101275.00;;;;4935754;28;88889;-66
2021/11/11 04:30:58;;;;;;;11.90;8.67;;;-0.40;99.90;-0.80;101282.00;;;;4935443;28;88290;-64
2021/11/11 04:33:25;;;;;;;14.73;8.97;;;-0.50;99.90;-0.80;101291.00;;;;4936092;28;87130;-66
2021/11/11 04:35:56;;;;;;;15.80;9.73;;;-0.40;99.90;-0.80;101289.00;;;;4936283;28;88218;-65
2021/11/11 04:41:08;;;;;;;10.43;9.00;;;-0.40;99.90;-0.80;101287.00;;;;4932481;28;88714;-64
2021/11/11 04:51:33;;;;;;;13.23;8.83;;;-0.40;99.90;-0.80;101306.00;;;;4932099;28;109166;-64
2021/11/11 05:04:40;;;;;;;11.93;8.10;;;-0.50;99.90;-0.90;101298.00;;;;4938029;28;87750;-64
2021/11/11 05:07:06;;;;;;;15.20;8.87;;;-0.10;99.90;-0.90;101297.00;;;;4938724;28;88531;-65
2021/11/11 05:09:32;;;;;;;10.07;7.03;;;0.30;99.90;-1.00;101292.00;;;;4938665;28;88387;-64
2021/11/11 05:11:58;;;;;;;11.83;7.77;;;-0.60;99.90;-1.00;101292.00;;;;4938500;28;87870;-64
2021/11/11 05:14:23;;;;;;;12.53;9.43;;;-0.60;99.90;-0.90;101297.00;;;;4937493;28;110887;-64
2021/11/11 05:16:49;;;;;;;18.13;10.27;;;0.40;99.90;-1.00;101280.00;;;;4938347;28;108697;-64
2021/11/11 05:19:15;;;;;;;14.57;10.13;;;-0.60;99.90;-1.00;101297.00;;;;4936836;28;117785;-65
2021/11/11 05:21:41;;;;;;;13.17;9.27;;;-0.60;99.90;-0.90;101289.00;;;;4937908;28;87891;-65
2021/11/11 05:24:06;;;;;;;13.73;8.93;;;-0.60;99.90;-1.00;101276.00;;;;4938487;28;113173;-64
2021/11/11 05:26:32;;;;;;;13.50;9.67;;;-0.60;99.90;-1.00;101280.00;;;;4938672;28;87482;-64
2021/11/11 05:28:59;;;;;;;8.70;7.70;;;-0.60;99.90;-1.00;101295.00;;;;4938666;28;88191;-65
2021/11/11 05:31:24;;;;;;;15.97;10.67;;;-0.60;99.90;-1.00;101283.00;;;;4938724;28;88641;-64
2021/11/11 05:33:50;;;;;;;17.90;9.87;;;-0.60;99.90;-0.90;101286.00;;;;4936429;28;110988;-64
2021/11/11 05:36:16;;;;;;;13.90;8.20;;;-0.60;99.90;-0.90;101287.00;;;;4936870;28;109105;-64
2021/11/11 05:38:41;;;;;;;16.00;10.00;;;-0.60;99.90;-0.90;101286.00;;;;4935247;28;116728;-63
2021/11/11 05:41:07;;;;;;;16.70;10.37;;;-0.60;99.90;-1.00;101282.00;;;;4933332;28;117165;-64
2021/11/11 05:43:35;;;;;;;19.10;10.53;;;-0.70;99.90;-0.90;101279.00;;;;4934622;28;87771;-64
2021/11/11 05:46:01;;;;;;;11.10;9.07;;;-0.50;99.90;-1.00;101282.00;;;;4935328;28;88321;-64
2021/11/11 05:48:27;;;;;;;13.43;10.17;;;-0.60;99.90;-1.00;101285.00;;;;4934804;28;87778;-64
2021/11/11 05:50:52;;;;;;;14.30;9.07;;;-0.60;99.90;-1.00;101277.00;;;;4932805;28;117137;-65
2021/11/11 05:53:18;;;;;;;18.87;10.70;;;-0.10;99.90;-1.00;101279.00;;;;4948173;28;112342;-64
2021/11/11 05:55:44;;;;;;;18.63;12.13;;;-0.70;99.90;-1.00;101272.00;;;;4935080;28;89105;-64
2021/11/11 05:58:10;;;;;;;17.03;11.20;;;-0.70;99.90;-1.10;101258.00;;;;4933418;28;117351;-64
2021/11/11 06:00:36;;;;;;;11.33;9.67;;;-0.70;99.90;-1.10;101263.00;;;;4934134;28;105622;-64
2021/11/11 06:03:03;;;;;;;15.17;10.87;;;-0.80;99.90;-1.20;101264.00;;;;4935557;28;87806;-65
2021/11/11 06:05:29;;;;;;;12.77;9.00;;;-0.80;99.90;-1.20;101273.00;;;;4935594;28;87807;-63
2021/11/11 06:07:55;;;;;;;14.20;10.07;;;-0.90;99.90;-1.20;101275.00;;;;4933304;28;118787;-63
2021/11/11 06:10:21;;;;;;;14.87;9.27;;;-0.80;99.90;-1.20;101272.00;;;;4934267;28;118766;-64
2021/11/11 06:12:46;;;;;;;12.70;9.43;;;-0.90;99.90;-1.20;101285.00;;;;4938321;28;87282;-63
2021/11/11 06:15:12;;;;;;;25.33;10.87;;;-0.80;99.90;-1.20;101287.00;;;;4938076;28;87808;-64
2021/11/11 06:17:38;;;;;;;11.33;9.10;;;-0.90;99.90;-1.20;101290.00;;;;4937094;28;89084;-64
2021/11/11 06:20:15;;;;;;;21.47;11.33;;;-0.90;99.90;-1.20;101297.00;;;;4937815;28;88662;-63
2021/11/11 06:22:43;;;;;;;16.23;9.37;;;-0.70;99.90;-1.20;101296.00;;;;4936974;28;87969;-64
2021/11/11 06:25:09;;;;;;;15.90;9.80;;;-0.70;99.90;-1.10;101296.00;;;;4938278;28;87923;-65
2021/11/11 06:27:35;;;;;;;17.77;10.37;;;-0.80;99.90;-1.10;101298.00;;;;4938235;28;87772;-64
2021/11/11 06:30:02;;;;;;;18.13;10.70;;;-0.80;99.90;-1.10;101298.00;;;;4937450;28;88475;-65
2021/11/11 06:32:27;;;;;;;13.30;9.77;;;-0.70;99.90;-1.10;101299.00;;;;4936947;28;96550;-66
2021/11/11 06:34:53;;;;;;;11.77;9.40;;;-0.80;99.90;-1.10;101296.00;;;;4937060;28;108275;-65
2021/11/11 06:37:19;;;;;;;17.77;11.43;;;-0.80;99.90;-1.10;101296.00;;;;4937033;28;116434;-65
2021/11/11 06:39:44;;;;;;;17.37;11.60;;;-0.70;99.90;-1.10;101280.00;;;;4936073;28;116736;-65
2021/11/11 06:42:10;;;;;;;20.67;11.30;;;-0.70;99.90;-1.10;101283.00;;;;4936469;28;112668;-65
2021/11/11 06:44:36;;;;;;;17.00;9.47;;;-0.70;99.90;-1.10;101271.00;;;;4935980;28;108380;-66
2021/11/11 06:47:02;;;;;;;15.47;9.30;;;-0.80;99.90;-1.00;101281.00;;;;4938178;28;87702;-64
2021/11/11 06:49:27;;;;;;;15.73;10.40;;;-0.60;99.90;-1.00;101280.00;;;;4936993;28;103511;-64
2021/11/11 06:51:53;;;;;;;15.87;10.60;;;-0.50;99.90;-0.90;101291.00;;;;4933922;28;110664;-64
2021/11/11 06:54:19;;;;;;;16.07;10.60;;;-0.50;99.90;-0.80;101293.00;;;;4936506;28;102761;-64
2021/11/11 06:56:44;;;;;;;17.70;10.63;;;-0.40;99.90;-0.70;101296.00;;;;4936299;28;111137;-64
2021/11/11 06:59:10;;;;;;;23.00;11.80;;;0.30;99.90;-0.60;101304.00;;;;4935461;28;117594;-64
2021/11/11 07:01:37;;;;;;;20.60;12.83;;;-0.30;99.90;-0.50;101296.00;;;;4936592;28;112116;-64
2021/11/11 07:04:02;;;;;;;19.03;12.20;;;-0.20;99.90;-0.40;101305.00;;;;4936795;28;88264;-64
2021/11/11 07:06:28;;;;;;;23.90;15.10;;;0.10;99.90;-0.30;101291.00;;;;4936139;28;107201;-64
2021/11/11 07:08:54;;;;;;;24.00;12.50;;;0.00;99.90;-0.20;101300.00;;;;4936072;28;89075;-64
2021/11/11 07:11:20;;;;;;;22.63;14.10;;;0.10;99.90;0.00;101309.00;;;;4936423;28;87869;-64
2021/11/11 07:13:45;;;;;;;23.73;14.57;;;1.20;99.90;0.20;101299.00;;;;4936650;28;87879;-64
2021/11/11 07:16:11;;;;;;;20.57;13.53;;;0.40;99.90;0.40;101311.00;;;;4935319;28;118157;-63
2021/11/11 07:18:37;;;;;;;19.40;12.97;;;0.50;99.90;0.50;101303.00;;;;4936479;28;87803;-63
2021/11/11 07:21:03;;;;;;;16.40;10.17;;;0.80;99.90;0.60;101311.00;;;;4936720;28;87480;-64
2021/11/11 07:23:29;;;;;;;23.27;13.30;;;0.90;99.90;0.80;101307.00;;;;4935962;28;108523;-64
2021/11/11 07:25:55;;;;;;;17.57;11.60;;;1.10;99.90;1.10;101318.00;;;;4935161;28;111916;-64
2021/11/11 07:28:22;;;;;;;16.17;10.53;;;1.30;99.90;1.30;101316.00;;;;4936058;28;87864;-66
2021/11/11 07:30:48;;;;;;;18.50;12.63;;;1.50;99.90;1.50;101319.00;;;;4935819;28;105652;-66
2021/11/11 07:33:15;;;;;;;19.50;11.97;;;1.70;99.90;1.70;101323.00;;;;4934448;28;108631;-65
2021/11/11 07:35:43;;;;;;;17.37;11.20;;;1.90;99.90;2.00;101325.00;;;;4936119;28;88193;-66
2021/11/11 07:38:11;;;;;;;15.33;10.57;;;2.20;99.90;2.20;101320.00;;;;4935985;28;88168;-66
2021/11/11 07:40:38;;;;;;;18.60;11.77;;;2.40;99.90;2.40;101313.00;;;;4935697;28;100510;-66
2021/11/11 07:43:05;;;;;;;20.47;11.67;;;2.60;99.90;2.60;101321.00;;;;4935586;28;87749;-65
2021/11/11 07:45:31;;;;;;;17.80;9.37;;;2.80;99.90;2.80;101326.00;;;;4936152;28;87712;-66
2021/11/11 07:48:01;;;;;;;15.60;10.83;;;3.90;99.90;3.00;101332.00;;;;4936658;28;87879;-67
2021/11/11 07:50:34;;;;;;;16.20;10.50;;;3.80;99.90;3.20;101315.00;;;;4936059;28;87174;-66
2021/11/11 07:53:01;;;;;;;14.53;10.47;;;3.30;99.90;3.40;101332.00;;;;4936196;28;87900;-66
2021/11/11 07:55:29;;;;;;;16.90;10.97;;;3.90;99.90;3.50;101326.00;;;;4935453;28;89166;-66
2021/11/11 07:57:55;;;;;;;23.30;15.83;;;3.60;99.90;3.70;101333.00;;;;4934867;28;88670;-66
2021/11/11 08:00:22;;;;;;;17.53;11.83;;;3.90;99.90;4.00;101325.00;;;;4935716;28;87731;-66
2021/11/11 08:02:48;;;;;;;19.73;10.77;;;4.10;99.90;4.30;101315.00;;;;4935539;28;87910;-66
2021/11/11 08:05:18;;;;;;;22.93;13.17;;;5.00;99.90;4.70;101326.00;;;;4936077;28;87930;-66
2021/11/11 08:07:45;;;;;;;17.30;10.93;;;4.70;99.90;5.00;101320.00;;;;4934694;28;88943;-65
2021/11/11 08:10:11;;;;;;;18.20;10.47;;;5.10;99.90;5.40;101334.00;;;;4935368;28;93228;-65
2021/11/11 08:12:37;;;;;;;15.17;10.37;;;5.50;99.90;5.70;101335.00;;;;4936078;28;87714;-65
2021/11/11 08:15:04;;;;;;;12.67;10.40;;;5.80;99.90;6.10;101340.00;;;;4934403;28;117632;-65
2021/11/11 08:17:30;;;;;;;14.47;10.17;;;6.00;99.90;6.40;101339.00;;;;4935473;28;87911;-64
2021/11/11 08:19:56;;;;;;;17.40;10.33;;;6.40;99.90;6.60;101342.00;;;;4934720;28;113711;-66
2021/11/11 08:22:27;;;;;;;16.57;10.40;;;6.70;99.90;6.90;101343.00;;;;4934950;28;88498;-66
2021/11/11 08:24:54;;;;;;;19.73;10.53;;;6.90;99.90;7.10;101340.00;;;;4935771;28;89378;-65
2021/11/11 08:27:22;;;;;;;15.63;10.10;;;7.20;99.90;7.30;101333.00;;;;4949835;28;88253;-65
2021/11/11 08:29:49;;;;;;;19.17;11.07;;;7.30;99.90;7.70;101338.00;;;;4933659;28;88015;-66
2021/11/11 08:32:16;;;;;;;19.53;11.00;;;7.60;99.90;7.90;101337.00;;;;4935405;28;93866;-65
2021/11/11 08:34:44;;;;;;;20.30;11.20;;;8.00;99.90;8.20;101347.00;;;;4934769;28;106046;-65
2021/11/11 08:37:11;;;;;;;17.20;11.70;;;8.20;99.90;8.40;101341.00;;;;4936775;28;88039;-65
2021/11/11 08:39:38;;;;;;;16.80;10.90;;;8.40;99.90;8.60;101346.00;;;;4953569;28;87114;-65
2021/11/11 08:42:06;;;;;;;16.80;11.17;;;8.50;99.90;8.80;101351.00;;;;4939544;28;87835;-65
2021/11/11 08:44:32;;;;;;;17.03;9.93;;;8.80;99.90;8.90;101356.00;;;;4938393;28;87719;-65
2021/11/11 08:46:58;;;;;;;20.50;12.50;;;8.90;99.90;8.90;101360.00;;;;4939173;28;97306;-66
2021/11/11 08:49:24;;;;;;;19.20;11.17;;;10.50;99.90;8.90;101357.00;;;;4938307;28;87860;-66
2021/11/11 08:51:52;;;;;;;19.00;11.37;;;9.00;99.90;9.10;101371.00;;;;4938720;28;88182;-65
2021/11/11 08:54:20;;;;;;;18.27;10.70;;;9.00;99.90;9.20;101367.00;;;;4938298;28;88690;-65
2021/11/11 08:56:50;;;;;;;17.97;11.70;;;9.40;99.90;9.40;101368.00;;;;4938167;28;88609;-65
2021/11/11 08:59:19;;;;;;;17.83;10.60;;;9.40;99.90;9.60;101377.00;;;;4938225;28;87824;-66
2021/11/11 09:01:45;;;;;;;15.77;9.60;;;9.50;99.90;9.90;101379.00;;;;4938572;28;87833;-66
2021/11/11 09:04:13;;;;;;;16.63;10.53;;;9.80;99.90;10.10;101373.00;;;;4939291;28;87997;-66
2021/11/11 09:06:43;;;;;;;16.67;9.90;;;10.00;99.90;10.30;101376.00;;;;4938164;28;89001;-66
2021/11/11 09:09:09;;;;;;;16.80;10.67;;;10.20;99.90;10.60;101381.00;;;;4939305;28;87839;-66
2021/11/11 09:11:36;;;;;;;14.53;10.60;;;10.40;99.90;10.80;101396.00;;;;4937424;28;88688;-66
2021/11/11 09:14:03;;;;;;;18.87;10.43;;;10.70;99.90;11.00;101395.00;;;;4938084;28;88168;-66
2021/11/11 09:16:30;;;;;;;17.43;10.60;;;10.90;99.90;11.20;101403.00;;;;4938937;28;87821;-66
2021/11/11 09:18:56;;;;;;;12.97;10.27;;;11.10;99.90;11.40;101399.00;;;;4937703;28;87788;-67
2021/11/11 09:21:22;;;;;;;18.23;10.27;;;11.30;99.90;11.60;101398.00;;;;4952409;28;87761;-66
2021/11/11 09:23:48;;;;;;;18.03;10.63;;;11.50;99.90;11.70;101398.00;;;;4938202;28;88270;-65
2021/11/11 09:26:15;;;;;;;13.77;9.83;;;11.60;99.90;11.70;101409.00;;;;4937953;28;88613;-66
2021/11/11 09:28:41;;;;;;;15.93;10.20;;;11.70;99.90;11.80;101412.00;;;;4938605;28;90343;-66
2021/11/11 09:31:11;;;;;;;16.17;10.93;;;11.80;99.90;12.00;101415.00;;;;4937652;28;88013;-66
2021/11/11 09:33:40;;;;;;;15.27;9.93;;;11.80;99.90;12.20;101408.00;;;;4937327;28;95791;-66
2021/11/11 09:36:05;;;;;;;18.77;10.17;;;12.10;99.90;12.30;101409.00;;;;4937694;28;94625;-67
2021/11/11 09:38:32;;;;;;;19.23;11.37;;;12.20;99.90;12.50;101415.00;;;;4936445;28;110528;-67
2021/11/11 09:40:58;;;;;;;17.37;10.77;;;12.30;99.90;12.70;101408.00;;;;4937865;28;87712;-68
2021/11/11 09:43:24;;;;;;;18.43;11.03;;;12.50;99.90;13.00;101407.00;;;;4937470;28;87721;-67
2021/11/11 09:45:51;;;;;;;17.47;11.17;;;12.70;99.90;13.20;101413.00;;;;4936652;28;104665;-67
2021/11/11 09:48:18;;;;;;;15.40;9.80;;;13.00;99.90;13.40;101410.00;;;;4936888;28;87836;-66
2021/11/11 09:50:46;;;;;;;16.73;11.03;;;13.20;99.90;13.50;101415.00;;;;4937482;28;87803;-66
2021/11/11 09:53:21;;;;;;;16.37;10.70;;;13.40;99.90;13.70;101400.00;;;;4937355;28;88340;-67
2021/11/11 09:58:38;;;;;;;13.13;11.00;;;13.60;99.90;14.00;101397.00;;;;4937090;28;87525;-67
2021/11/11 10:01:17;;;;;;;21.07;10.97;;;13.80;99.90;14.10;101409.00;;;;4936959;28;88757;-67
2021/11/11 10:03:46;;;;;;;18.70;10.70;;;13.90;99.30;14.30;101408.00;;;;4952595;28;87970;-67
2021/11/11 10:06:15;;;;;;;19.13;11.57;;;14.10;98.80;14.40;101399.00;;;;4951683;28;88507;-67
2021/11/11 10:08:51;;;;;;;17.87;10.73;;;14.20;97.40;14.40;101391.00;;;;4935188;28;94101;-65
2021/11/11 10:11:29;;;;;;;17.10;10.37;;;14.20;96.00;14.50;101385.00;;;;4935039;28;87600;-65
2021/11/11 10:14:23;;;;;;;14.73;9.03;;;14.30;95.80;14.50;101388.00;;;;4937653;28;87970;-65
2021/11/11 10:17:02;;;;;;;15.70;10.13;;;14.30;95.70;14.60;101386.00;;;;4935764;28;87849;-65
2021/11/11 10:19:32;;;;;;;16.87;10.87;;;14.40;95.50;14.70;101387.00;;;;4936672;28;101639;-66
2021/11/11 10:22:07;;;;;;;18.27;11.37;;;14.50;95.10;14.80;101384.00;;;;4937241;28;87706;-65
2021/11/11 10:24:45;;;;;;;12.43;10.10;;;14.60;94.00;14.80;101386.00;;;;4936817;28;88522;-66
2021/11/11 10:27:27;;;;;;;21.53;11.73;;;14.70;93.30;14.90;101379.00;;;;4951492;28;90143;-68
2021/11/11 10:30:15;;;;;;;17.30;10.73;;;14.40;92.60;14.90;101383.00;;;;4937330;28;87821;-66
2021/11/11 10:32:47;;;;;;;21.43;10.30;;;14.70;92.50;15.00;101388.00;;;;4937363;28;87926;-65
2021/11/11 10:35:31;;;;;;;15.27;9.70;;;14.80;92.50;15.10;101383.00;;;;4935907;28;105890;-65
2021/11/11 10:38:07;;;;;;;19.57;10.93;;;14.90;92.30;15.30;101385.00;;;;4937607;28;87732;-66
2021/11/11 10:40:47;;;;;;;19.47;10.37;;;15.00;91.80;15.30;101381.00;;;;4936788;28;87635;-65
2021/11/11 10:43:25;;;;;;;15.63;9.23;;;15.10;90.80;15.30;101385.00;;;;4937374;28;87953;-66
2021/11/11 10:45:54;;;;;;;17.23;10.23;;;15.10;88.70;15.30;101386.00;;;;4937671;28;88473;-65
2021/11/11 10:48:25;;;;;;;14.13;10.30;;;15.10;89.00;15.30;101383.00;;;;4936153;28;87974;-66
2021/11/11 10:51:05;;;;;;;19.92;9.45;;;15.20;88.10;15.50;101376.00;;;;4936528;28;87613;-65
2021/11/11 10:53:34;;;;;;;12.73;9.30;;;15.30;88.00;15.50;101373.00;;;;4937414;28;88714;-66
2021/11/11 10:56:05;;;;;;;15.73;9.40;;;15.30;86.80;15.50;101380.00;;;;4937675;28;88324;-65
2021/11/11 10:58:35;;;;;;;12.90;8.98;;;15.30;86.50;15.50;101376.00;;;;4951830;28;88415;-66
2021/11/11 11:01:04;;;;;;;16.37;9.37;;;15.30;86.50;15.60;101368.00;;;;4936023;28;88148;-65
2021/11/11 11:03:31;;;;;;;16.50;9.13;;;15.40;86.80;15.70;101364.00;;;;4937274;28;87727;-65
2021/11/11 11:06:10;;;;;;;16.02;8.90;;;15.50;85.90;15.80;101376.00;;;;4937323;28;89042;-66